Kansas City International Airport
KMCI : now visible

Airfield :











YOU CAN JOIN US ON...

 
LOGIN :

Register | Disclaimer

   EN    FR    IT 

 









Legend :    VFR   Marginal VFR   IFR   Intensive IFR   Very Intensive IFR
Visi :
Ceiling :
>= 8 km
>= 3000ft
5 to 8 km
1000 to 3000 ft
1500m to 5 km
500 to 1000 ft
800 to 1500m
200 to 500 ft
< 800m
< 200 ft
Symbols :   Thunderstorms  Fog  Heavy snow  Heavy precipitations  Wind > 20 kt






- Airport Elevation : 1026 ft
- IATA code : MCI


KMCI - Kansas City International

CURRENT METAR :
  • 242053Z 02005KT 10SM OVC021 04/M01 A3001 RMK AO2 SLP168 T00391006 55008

EXPIRED METARs :
  • 241953Z 04007KT 10SM OVC022 03/M01 A3000 RMK AO2 SLP163 T00331011
  • 241853Z 02007KT 10SM FEW018 OVC026 03/M01 A3002 RMK AO2 SLP171 T00331011

TAF KMCI
Valid from the 24 at 18:00 until the 25 at 18:00 UTC


241734Z 2418/2518 02007KT P6SM OVC016
FM250400 07011KT P6SM OVC013
FM250800 07012KT 4SM RA BR OVC008
FM251600 07016G26KT 6SM -RA BR OVC006
KZKC FIR / North America



MET'MAP, your aeronautical weather chart ! - Copyright ORBIFLY December 2007 - Disclaimer

ORBIFLY MET'MAP TEAM :

Programming & Development : Alexandra Zaïnal
Concept & original design : Baudouin d'Aumeries
Assistance for programming : Marc-Olivier Méhu
Technical & hardware support : Manuel Goepfert

Contact : metmap@orbifly.com




SOURCES & CREDITS :

   NOAA       Earth
Advisory